Overview Statistics Trail Chart Weather Telemetry Raw packets
 

This is the latest recevied weather packets stored in our database for station/object KC5TIL. If no packets are shown the sender has not sent any weather packets the latest 10 day(s).

<< 87 88 89 90 91 92 93 >>
Time Temp. Humidity Pressure Rain* Wind** Luminosity Snow
1787965772 34.44° C 45% 1014.9 hPa 0 mm - 0 W/m² -
1787965467 35° C 45% 1014.9 hPa 0 mm - 0 W/m² -
1787965166 35° C 42% 1014.9 hPa 0 mm - 2 W/m² -
1787964861 35° C 43% 1014.7 hPa 0 mm - 3 W/m² -
1787964556 35° C 43% 1014.6 hPa 0 mm - 7 W/m² -
1787964252 35.56° C 43% 1014.7 hPa 0 mm - 10 W/m² -
1787963950 35.56° C 44% 1014.7 hPa 0 mm - 14 W/m² -
1787963646 35.56° C 43% 1014.7 hPa 0 mm - 18 W/m² -
1787963341 35.56° C 42% 1014.6 hPa 0 mm - 22 W/m² -
1787963041 36.11° C 43% 1014.5 hPa 0 mm - 27 W/m² -
1787962740 36.11° C 42% 1014.4 hPa 0 mm - 32 W/m² -
1787962434 36.67° C 40% 1014.4 hPa 0 mm - 35 W/m² -
1787962133 36.11° C 37% 1014.3 hPa 0 mm - 39 W/m² -
1787961827 36.67° C 41% 1014.4 hPa 0 mm - 42 W/m² -
1787961526 36.67° C 42% 1014.3 hPa 0 mm - 45 W/m² -
1787961221 36.67° C 42% 1014.1 hPa 0 mm - 49 W/m² -
1787960920 37.22° C 40% 1014.1 hPa 0 mm - 50 W/m² -
1787960615 37.22° C 35% 1014.3 hPa 0 mm - 55 W/m² -
1787960314 37.22° C 33% 1014.1 hPa 0 mm - 60 W/m² -
1787960008 37.22° C 34% 1014.3 hPa 0 mm - 67 W/m² -
1787959703 37.22° C 36% 1014.2 hPa 0 mm - 62 W/m² -
1787959398 37.78° C 36% 1014.2 hPa 0 mm - 65 W/m² -
1787959093 37.78° C 34% 1014.2 hPa 0 mm - 71 W/m² -
1787958788 37.78° C 33% 1014.6 hPa 0 mm - 175 W/m² -
1787958484 38.33° C 32% 1014.4 hPa 0 mm - 189 W/m² -

* Rain latest hour (hover to see other rain measurements)
** Current wind speed in m/s (hover to see current wind gust speed)